createdAt,value
2022-10-21T00:00:00.084Z,79.91
2022-10-21T00:02:02.082Z,80.82
2022-10-21T00:04:05.025Z,80.36
2022-10-21T00:06:08.910Z,80.99
2022-10-21T00:08:11.522Z,81.09
2022-10-21T00:10:13.625Z,80.90
2022-10-21T00:12:15.891Z,80.96
2022-10-21T00:14:20.307Z,81.52
2022-10-21T00:16:22.502Z,81.04
2022-10-21T00:18:24.590Z,80.59
2022-10-21T00:20:26.861Z,81.41
2022-10-21T00:22:29.393Z,81.37
2022-10-21T00:24:31.592Z,81.47
2022-10-21T00:26:37.609Z,80.77
2022-10-21T00:28:41.442Z,81.14
2022-10-21T00:30:45.759Z,81.33
2022-10-21T00:32:48.702Z,80.87
2022-10-21T00:34:51.132Z,80.94
2022-10-21T00:36:53.483Z,80.71
2022-10-21T00:38:57.231Z,81.05
2022-10-21T00:41:00.270Z,81.27
2022-10-21T00:43:02.710Z,80.96
2022-10-21T00:45:07.453Z,80.97
2022-10-21T00:47:17.197Z,81.44
2022-10-21T00:49:39.277Z,81.56
2022-10-21T00:51:42.332Z,81.47
2022-10-21T00:53:47.755Z,81.43
2022-10-21T00:55:56.241Z,81.69
2022-10-21T00:57:58.673Z,81.55
2022-10-21T01:00:02.344Z,81.95
2022-10-21T01:02:06.489Z,81.68
2022-10-21T01:04:08.744Z,81.80
2022-10-21T01:06:13.016Z,82.03
2022-10-21T01:08:15.154Z,81.74
2022-10-21T01:10:18.342Z,82.18
2022-10-21T01:12:32.442Z,81.84
2022-10-21T01:17:44.054Z,82.36
2022-10-21T01:20:27.985Z,82.18
2022-10-21T01:22:58.164Z,82.42
2022-10-21T01:25:20.064Z,82.65
2022-10-21T01:27:35.348Z,82.48
2022-10-21T01:30:06.417Z,83.21
2022-10-21T01:32:32.653Z,83.62
2022-10-21T01:34:54.486Z,83.40
2022-10-21T01:37:31.503Z,83.56
2022-10-21T01:39:46.180Z,83.19
2022-10-21T01:42:06.212Z,83.64
2022-10-21T01:44:29.641Z,83.28
2022-10-21T01:46:55.837Z,83.58
2022-10-21T01:49:04.465Z,83.62
2022-10-21T01:51:11.714Z,83.50
2022-10-21T01:53:16.264Z,83.63
2022-10-21T01:55:21.584Z,83.81
2022-10-21T01:57:27.222Z,84.08
2022-10-21T01:59:32.942Z,84.18
2022-10-21T02:01:37.200Z,84.01
2022-10-21T02:03:42.828Z,83.88
2022-10-21T02:05:45.198Z,84.48
2022-10-21T02:07:48.057Z,84.67
2022-10-21T02:09:50.185Z,84.82
2022-10-21T02:11:57.375Z,84.36
2022-10-21T02:14:24.246Z,84.82
2022-10-21T02:16:33.733Z,85.11
2022-10-21T02:18:36.032Z,85.24
2022-10-21T02:20:42.613Z,85.15
2022-10-21T02:22:47.144Z,85.78
2022-10-21T02:24:54.951Z,85.83
2022-10-21T02:26:57.719Z,85.71
2022-10-21T02:29:00.417Z,86.12
2022-10-21T02:31:26.348Z,85.68
2022-10-21T02:33:46.926Z,85.72
2022-10-21T02:36:24.213Z,85.57
2022-10-21T02:38:33.228Z,85.73
2022-10-21T02:40:51.610Z,85.60
2022-10-21T02:43:06.179Z,85.70
2022-10-21T02:45:09.755Z,86.18
2022-10-21T02:49:14.223Z,85.93
2022-10-21T02:51:16.695Z,86.01
2022-10-21T02:53:19.003Z,86.08
2022-10-21T02:55:21.162Z,86.15
2022-10-21T02:57:23.385Z,86.24
2022-10-21T02:59:25.576Z,86.67
2022-10-21T03:01:27.732Z,87.37
2022-10-21T03:03:30.086Z,87.12
2022-10-21T03:07:40.117Z,87.29
2022-10-21T03:09:42.517Z,87.69
2022-10-21T03:11:44.553Z,87.93
2022-10-21T03:13:46.701Z,87.83
2022-10-21T03:15:50.137Z,88.34
2022-10-21T03:17:52.838Z,88.59
2022-10-21T03:19:54.910Z,88.57
2022-10-21T03:21:57.039Z,88.48
2022-10-21T03:23:59.317Z,89.17
2022-10-21T03:26:01.904Z,88.82
2022-10-21T03:28:04.129Z,89.15
2022-10-21T03:30:07.862Z,89.00
2022-10-21T03:32:09.934Z,89.25
2022-10-21T03:34:12.031Z,89.59
2022-10-21T03:36:14.241Z,89.69
2022-10-21T03:38:16.286Z,90.04
2022-10-21T03:40:18.983Z,90.26
2022-10-21T03:42:21.196Z,90.18
2022-10-21T03:44:23.451Z,90.09
2022-10-21T03:46:25.929Z,90.19
2022-10-21T03:48:28.611Z,90.47
2022-10-21T03:50:30.791Z,90.82
2022-10-21T03:52:33.101Z,90.81
2022-10-21T03:54:35.159Z,90.66
2022-10-21T03:56:37.417Z,90.71
2022-10-21T03:58:40.280Z,90.74
2022-10-21T04:00:42.528Z,90.58
2022-10-21T04:02:44.673Z,90.43
2022-10-21T04:04:46.845Z,90.93
2022-10-21T04:06:48.963Z,90.30
2022-10-21T04:08:51.195Z,90.75
2022-10-21T04:10:53.406Z,90.59
2022-10-21T04:12:55.564Z,90.87
2022-10-21T04:14:57.662Z,90.87
2022-10-21T04:17:06.754Z,90.95
2022-10-21T04:19:09.530Z,90.39
2022-10-21T04:21:12.073Z,90.67
2022-10-21T04:23:14.194Z,91.04
2022-10-21T04:25:16.499Z,90.66
2022-10-21T04:27:19.082Z,90.40
2022-10-21T04:29:21.431Z,90.81
2022-10-21T04:31:23.491Z,90.87
2022-10-21T04:33:25.816Z,91.01
2022-10-21T04:35:28.040Z,90.53
2022-10-21T04:37:30.114Z,90.53
2022-10-21T04:39:32.439Z,90.44
2022-10-21T04:41:34.429Z,90.96
2022-10-21T04:43:37.998Z,90.65
2022-10-21T04:45:40.758Z,90.75
2022-10-21T04:47:42.877Z,90.89
2022-10-21T04:49:45.021Z,91.19
2022-10-21T04:51:47.160Z,90.77
2022-10-21T04:53:49.813Z,90.51
2022-10-21T04:55:53.001Z,89.92
2022-10-21T04:57:55.983Z,90.20
2022-10-21T04:59:58.304Z,90.24
2022-10-21T05:04:03.868Z,90.03
2022-10-21T05:06:06.289Z,89.91
2022-10-21T05:08:11.507Z,90.15
2022-10-21T05:10:14.763Z,89.89
2022-10-21T05:12:16.759Z,89.93
2022-10-21T05:14:22.444Z,89.90
2022-10-21T05:16:25.077Z,89.84
2022-10-21T05:18:27.363Z,89.86
2022-10-21T05:20:29.384Z,89.66
2022-10-21T05:22:31.507Z,89.89
2022-10-21T05:24:33.791Z,89.84
2022-10-21T05:26:36.026Z,89.51
2022-10-21T05:28:38.118Z,89.23
2022-10-21T05:32:43.668Z,88.99
2022-10-21T05:34:46.003Z,88.41
2022-10-21T05:36:49.211Z,88.10
2022-10-21T05:38:51.547Z,88.03
2022-10-21T05:40:53.957Z,88.06
2022-10-21T05:42:56.282Z,87.93
2022-10-21T05:44:58.435Z,87.73
2022-10-21T05:47:00.709Z,88.28
2022-10-21T05:49:03.061Z,88.13
2022-10-21T05:51:05.995Z,87.69
2022-10-21T05:53:08.163Z,88.08
2022-10-21T05:55:10.937Z,87.88
2022-10-21T05:57:15.293Z,88.12
2022-10-21T05:59:17.580Z,88.10
2022-10-21T06:01:19.857Z,87.80
2022-10-21T06:03:22.766Z,87.75
2022-10-21T06:05:24.781Z,87.81
2022-10-21T06:07:27.207Z,88.27
2022-10-21T06:09:29.180Z,88.17
2022-10-21T06:11:32.158Z,88.06
2022-10-21T06:13:34.614Z,88.10
2022-10-21T06:15:37.431Z,88.35
2022-10-21T06:17:39.877Z,88.07
2022-10-21T06:19:45.891Z,87.95
2022-10-21T06:21:50.948Z,87.72
2022-10-21T06:23:56.421Z,87.67
2022-10-21T06:26:04.616Z,87.25
2022-10-21T06:28:07.076Z,86.87
2022-10-21T06:30:09.721Z,86.63
2022-10-21T06:32:12.619Z,86.66
2022-10-21T06:34:15.459Z,85.93
2022-10-21T06:36:17.953Z,86.47
2022-10-21T06:38:20.178Z,85.60
2022-10-21T06:40:23.810Z,85.81
2022-10-21T06:42:26.243Z,85.71
2022-10-21T06:44:38.693Z,85.10
2022-10-21T06:46:41.297Z,85.38
2022-10-21T06:48:44.482Z,86.01
2022-10-21T06:50:47.496Z,84.50
2022-10-21T06:52:51.213Z,84.49
2022-10-21T06:54:57.416Z,84.86
2022-10-21T06:57:00.342Z,84.89
2022-10-21T06:59:03.705Z,84.29
2022-10-21T07:01:21.526Z,84.65
2022-10-21T07:03:33.948Z,84.56
2022-10-21T07:05:36.292Z,83.90
2022-10-21T07:07:52.589Z,84.04
2022-10-21T07:10:21.715Z,83.96
2022-10-21T07:12:27.519Z,83.29
2022-10-21T07:14:31.684Z,83.33
2022-10-21T07:16:36.254Z,82.67
2022-10-21T07:18:40.540Z,82.25
2022-10-21T07:20:44.875Z,81.62
2022-10-21T07:22:46.933Z,81.65
2022-10-21T07:24:49.257Z,80.87
2022-10-21T07:26:51.615Z,79.80
2022-10-21T07:28:54.907Z,81.11
2022-10-21T07:30:57.241Z,80.33
2022-10-21T07:33:02.748Z,79.88
2022-10-21T07:35:05.190Z,79.37
2022-10-21T07:37:07.320Z,79.40
2022-10-21T07:39:14.699Z,79.75
2022-10-21T07:41:23.073Z,78.77
2022-10-21T07:43:25.998Z,79.37
2022-10-21T07:45:28.482Z,78.70
2022-10-21T07:47:30.574Z,79.45
2022-10-21T07:49:32.665Z,79.06
2022-10-21T07:51:34.811Z,77.96
2022-10-21T07:53:36.913Z,78.14
2022-10-21T07:55:39.091Z,78.83
2022-10-21T07:57:41.873Z,78.90
2022-10-21T07:59:44.104Z,77.20
2022-10-21T08:03:56.321Z,78.57
2022-10-21T08:06:33.231Z,77.86
2022-10-21T08:08:36.260Z,77.80
2022-10-21T08:10:42.201Z,77.43
2022-10-21T08:12:44.693Z,77.53
2022-10-21T08:14:46.857Z,77.64
2022-10-21T08:16:53.292Z,76.92
2022-10-21T08:18:55.984Z,76.85
2022-10-21T08:20:58.354Z,76.15
2022-10-21T08:23:00.739Z,76.41
2022-10-21T08:25:03.015Z,76.28
2022-10-21T08:27:08.520Z,75.00
2022-10-21T08:29:10.821Z,75.91
2022-10-21T08:31:15.632Z,75.44
2022-10-21T08:33:18.357Z,75.46
2022-10-21T08:35:20.569Z,75.51
2022-10-21T08:37:25.508Z,75.36
2022-10-21T08:39:29.201Z,75.28
2022-10-21T08:41:31.380Z,75.50
2022-10-21T08:43:35.497Z,75.30
2022-10-21T08:45:45.896Z,75.26
2022-10-21T08:47:53.027Z,75.53
2022-10-21T08:50:34.116Z,74.87
2022-10-21T08:52:44.222Z,74.33
2022-10-21T08:54:53.746Z,74.04
2022-10-21T08:57:00.518Z,73.87
2022-10-21T08:59:02.683Z,73.14
2022-10-21T09:01:26.401Z,72.68
2022-10-21T09:03:58.676Z,72.43
2022-10-21T09:06:13.143Z,72.17
2022-10-21T09:08:58.502Z,72.17
2022-10-21T09:11:12.086Z,73.16
2022-10-21T09:13:25.655Z,73.04
2022-10-21T09:15:41.801Z,73.71
2022-10-21T09:18:02.738Z,73.99
2022-10-21T09:20:22.383Z,73.72
2022-10-21T09:22:47.662Z,74.11
2022-10-21T09:25:00.471Z,74.25
2022-10-21T09:27:04.078Z,75.09
2022-10-21T09:29:29.236Z,75.70
2022-10-21T09:31:31.508Z,75.78
2022-10-21T09:33:37.298Z,75.01
2022-10-21T09:35:49.581Z,74.92
2022-10-21T09:37:55.337Z,74.80
2022-10-21T09:40:20.301Z,74.74
2022-10-21T09:42:45.858Z,74.57
2022-10-21T09:44:50.489Z,74.62
2022-10-21T09:46:54.518Z,75.15
2022-10-21T09:49:36.296Z,74.85
2022-10-21T09:51:22.100Z,74.73
2022-10-21T09:53:49.999Z,75.23
2022-10-21T09:56:02.486Z,75.44
2022-10-21T09:58:04.858Z,75.27
2022-10-21T10:00:11.069Z,74.83
2022-10-21T10:02:25.954Z,74.96
2022-10-21T10:04:35.564Z,74.47
2022-10-21T10:06:43.500Z,74.21
2022-10-21T10:08:48.823Z,73.96
2022-10-21T10:10:50.989Z,74.37
2022-10-21T10:12:58.755Z,73.40
2022-10-21T10:15:29.385Z,73.43
2022-10-21T10:17:37.415Z,73.53
2022-10-21T10:19:39.612Z,73.49
2022-10-21T10:21:42.406Z,74.05
2022-10-21T10:23:50.807Z,73.73
2022-10-21T10:25:53.175Z,73.22
2022-10-21T10:27:56.770Z,73.63
2022-10-21T10:30:01.420Z,74.17
2022-10-21T10:32:15.552Z,73.91
2022-10-21T10:34:24.885Z,75.08
2022-10-21T10:36:31.570Z,74.66
2022-10-21T10:38:41.327Z,75.93
2022-10-21T10:40:44.159Z,75.76
2022-10-21T10:42:46.730Z,75.62
2022-10-21T10:44:53.702Z,75.42
2022-10-21T10:46:59.133Z,75.82
2022-10-21T10:49:33.913Z,74.05
2022-10-21T10:51:36.414Z,74.47
2022-10-21T10:53:39.078Z,74.11
2022-10-21T10:55:46.118Z,73.50
2022-10-21T10:58:05.935Z,74.18
2022-10-21T11:00:21.067Z,73.97
2022-10-21T11:02:34.423Z,73.31
2022-10-21T11:05:01.681Z,72.96
2022-10-21T11:07:17.636Z,73.55
2022-10-21T11:09:27.296Z,73.64
2022-10-21T11:11:37.788Z,74.22
2022-10-21T11:13:42.219Z,73.55
2022-10-21T11:16:05.755Z,73.83
2022-10-21T11:18:29.900Z,73.64
2022-10-21T11:20:45.155Z,73.67
2022-10-21T11:25:24.065Z,73.18
2022-10-21T11:27:34.771Z,73.27
2022-10-21T11:30:04.135Z,73.11
2022-10-21T11:32:21.412Z,72.37
2022-10-21T11:34:39.352Z,72.68
2022-10-21T11:36:56.961Z,72.57
2022-10-21T11:39:35.705Z,71.50
2022-10-21T11:41:51.682Z,72.24
2022-10-21T11:44:03.469Z,73.02
2022-10-21T11:46:33.111Z,73.84
2022-10-21T11:48:49.275Z,73.38
2022-10-21T11:51:06.330Z,73.28
2022-10-21T11:53:35.227Z,73.81
2022-10-21T11:55:42.812Z,73.61
2022-10-21T11:58:15.100Z,73.12
2022-10-21T12:00:49.195Z,73.41
2022-10-21T12:02:54.206Z,73.50
2022-10-21T12:05:14.026Z,74.30
2022-10-21T12:07:24.729Z,74.24
2022-10-21T12:09:51.508Z,74.44
2022-10-21T12:12:16.774Z,75.30
2022-10-21T12:14:34.519Z,75.81
2022-10-21T12:16:36.808Z,75.61
2022-10-21T12:18:45.069Z,75.72
2022-10-21T12:20:50.384Z,75.45
2022-10-21T12:23:05.722Z,75.92
2022-10-21T12:25:13.588Z,76.04
2022-10-21T12:27:30.668Z,76.25
2022-10-21T12:30:17.349Z,76.36
2022-10-21T12:32:41.392Z,75.93
2022-10-21T12:34:45.786Z,75.92
2022-10-21T12:36:54.267Z,75.95
2022-10-21T12:39:01.800Z,75.74
2022-10-21T12:41:38.314Z,76.51
2022-10-21T12:43:41.726Z,77.06
2022-10-21T12:45:44.620Z,77.00
2022-10-21T12:47:55.010Z,77.20
2022-10-21T12:50:04.515Z,77.37
2022-10-21T12:52:22.688Z,77.44
2022-10-21T12:54:30.671Z,78.00
2022-10-21T12:56:47.330Z,77.30
2022-10-21T12:58:59.380Z,77.73
2022-10-21T13:01:02.907Z,77.75
2022-10-21T13:03:07.950Z,77.86
2022-10-21T13:05:10.353Z,77.65
2022-10-21T13:07:15.490Z,78.57
2022-10-21T13:10:08.266Z,78.03
2022-10-21T13:12:10.505Z,78.63
2022-10-21T13:14:35.117Z,78.93
2022-10-21T13:16:41.675Z,79.12
2022-10-21T13:18:55.995Z,78.72
2022-10-21T13:20:59.974Z,79.00
2022-10-21T13:23:36.536Z,79.00
2022-10-21T13:25:41.335Z,79.40
2022-10-21T13:27:51.499Z,79.16
2022-10-21T13:29:55.179Z,79.38
2022-10-21T13:32:37.901Z,80.26
2022-10-21T13:35:19.401Z,79.99
2022-10-21T13:37:31.562Z,80.51
2022-10-21T13:39:35.368Z,80.60
2022-10-21T13:41:37.665Z,80.35
2022-10-21T13:43:46.489Z,80.69
2022-10-21T13:45:51.629Z,81.11
2022-10-21T13:48:12.881Z,81.30
2022-10-21T13:50:30.993Z,81.57
2022-10-21T13:52:33.456Z,81.09
2022-10-21T13:54:36.045Z,81.90
2022-10-21T13:56:42.154Z,82.19
2022-10-21T13:58:45.285Z,81.71
2022-10-21T14:00:47.895Z,81.86
2022-10-21T14:02:54.013Z,82.51
2022-10-21T14:04:57.062Z,82.59
2022-10-21T14:07:04.895Z,83.65
2022-10-21T14:09:10.351Z,84.00
2022-10-21T14:11:16.407Z,83.96
2022-10-21T14:13:24.828Z,84.53
2022-10-21T14:16:36.493Z,85.78
2022-10-21T14:19:02.989Z,85.92
2022-10-21T14:21:06.782Z,85.77
2022-10-21T14:23:22.126Z,86.93
2022-10-21T14:25:31.172Z,86.92
2022-10-21T14:27:35.814Z,87.00
2022-10-21T14:29:39.151Z,86.83
2022-10-21T14:31:46.400Z,87.18
2022-10-21T14:33:50.658Z,87.47
2022-10-21T14:36:07.555Z,88.17
2022-10-21T14:38:28.521Z,88.15
2022-10-21T14:40:41.731Z,88.17
2022-10-21T14:42:45.650Z,88.52
2022-10-21T14:44:54.808Z,88.83
2022-10-21T14:46:58.880Z,89.16
2022-10-21T14:49:06.231Z,89.03
2022-10-21T14:51:15.321Z,88.95
2022-10-21T14:53:24.539Z,89.33
2022-10-21T14:55:31.143Z,89.31
2022-10-21T14:57:45.750Z,88.72
2022-10-21T14:59:51.295Z,89.12
2022-10-21T15:01:53.950Z,89.12
2022-10-21T15:04:00.949Z,89.90
2022-10-21T15:06:14.544Z,89.71
2022-10-21T15:08:22.384Z,90.28
2022-10-21T15:10:33.763Z,89.81
2022-10-21T15:12:53.138Z,90.98
2022-10-21T15:15:26.083Z,90.81
2022-10-21T15:17:45.414Z,91.18
2022-10-21T15:19:52.975Z,90.94
2022-10-21T15:22:02.361Z,91.49
2022-10-21T15:24:17.222Z,91.28
2022-10-21T15:26:24.791Z,91.34
2022-10-21T15:28:33.169Z,91.53
2022-10-21T15:30:37.755Z,91.42
2022-10-21T15:32:40.981Z,91.33
2022-10-21T15:36:48.336Z,91.51
2022-10-21T15:38:50.989Z,91.57
2022-10-21T15:40:53.089Z,91.72
2022-10-21T15:42:56.901Z,92.43
2022-10-21T15:44:59.156Z,92.02
2022-10-21T15:47:05.637Z,91.69
2022-10-21T15:49:16.202Z,92.06
2022-10-21T15:51:19.329Z,92.87
2022-10-21T15:53:21.776Z,92.85
2022-10-21T15:55:23.900Z,93.08
2022-10-21T15:57:26.124Z,92.92
2022-10-21T15:59:33.703Z,93.22
2022-10-21T16:01:36.061Z,93.29
2022-10-21T16:03:38.250Z,93.35
2022-10-21T16:05:40.520Z,94.56
2022-10-21T16:07:43.336Z,94.47
2022-10-21T16:09:45.717Z,94.65
2022-10-21T16:11:58.900Z,95.96
2022-10-21T16:14:01.801Z,95.65
2022-10-21T16:16:05.551Z,96.06
2022-10-21T16:18:15.265Z,96.21
2022-10-21T16:20:24.054Z,95.92
2022-10-21T16:22:28.645Z,96.10
2022-10-21T16:24:30.870Z,96.70
2022-10-21T16:26:35.468Z,96.47
2022-10-21T16:28:37.550Z,97.34
2022-10-21T16:30:40.036Z,97.04
2022-10-21T16:32:44.855Z,97.09
2022-10-21T16:34:47.038Z,96.45
2022-10-21T16:36:49.389Z,97.01
2022-10-21T16:38:51.565Z,97.33
2022-10-21T16:40:53.783Z,97.51
2022-10-21T16:42:55.982Z,97.67
2022-10-21T16:44:58.276Z,98.17
2022-10-21T16:47:00.661Z,98.53
2022-10-21T16:49:13.140Z,98.61
2022-10-21T16:51:16.414Z,99.40
2022-10-21T16:53:19.055Z,99.23
2022-10-21T16:55:21.839Z,99.34
2022-10-21T16:57:24.726Z,99.56
2022-10-21T16:59:26.944Z,99.57
2022-10-21T17:01:29.575Z,99.45
2022-10-21T17:03:32.484Z,100.00
2022-10-21T17:05:35.894Z,100.00
2022-10-21T17:07:41.986Z,100.00
2022-10-21T17:09:45.187Z,100.00
2022-10-21T17:11:48.131Z,100.00
2022-10-21T17:13:51.511Z,100.00
2022-10-21T17:15:57.622Z,100.00
2022-10-21T17:18:00.633Z,100.00
2022-10-21T17:20:04.053Z,100.00
2022-10-21T17:22:06.601Z,100.00
2022-10-21T17:24:14.910Z,100.00
2022-10-21T17:26:18.223Z,100.00
2022-10-21T17:28:20.993Z,100.00
2022-10-21T17:30:23.885Z,100.00
2022-10-21T17:32:26.397Z,100.00
2022-10-21T17:34:31.844Z,100.00
2022-10-21T17:36:35.542Z,100.00
2022-10-21T17:38:38.002Z,100.00
2022-10-21T17:40:40.198Z,100.00
2022-10-21T17:42:43.058Z,100.00
2022-10-21T17:44:45.598Z,100.00
2022-10-21T17:46:52.058Z,100.00
2022-10-21T17:48:56.739Z,100.00
2022-10-21T17:51:04.521Z,100.00
2022-10-21T17:53:16.104Z,100.00
2022-10-21T17:55:22.028Z,100.00
2022-10-21T17:57:38.553Z,100.00
2022-10-21T17:59:47.577Z,100.00
2022-10-21T18:02:01.903Z,100.00
2022-10-21T18:04:38.727Z,100.00
2022-10-21T18:06:45.229Z,100.00
2022-10-21T18:08:47.925Z,100.00
2022-10-21T18:10:55.518Z,100.00
2022-10-21T18:12:57.659Z,100.00
2022-10-21T18:14:59.806Z,100.00
2022-10-21T18:17:01.992Z,100.00
2022-10-21T18:19:04.576Z,100.00
2022-10-21T18:21:09.278Z,100.00
2022-10-21T18:23:11.867Z,100.00
2022-10-21T18:25:15.526Z,100.00
2022-10-21T18:27:17.691Z,100.00
2022-10-21T18:29:19.735Z,100.00
2022-10-21T18:31:21.856Z,100.00
2022-10-21T18:33:23.880Z,100.00
2022-10-21T18:35:29.122Z,100.00
2022-10-21T18:37:32.856Z,100.00
2022-10-21T18:39:34.962Z,100.00
2022-10-21T18:41:38.671Z,100.00
2022-10-21T18:43:42.466Z,100.00
2022-10-21T18:45:45.855Z,100.00
2022-10-21T18:47:50.062Z,100.00
2022-10-21T18:49:52.245Z,100.00
2022-10-21T18:51:54.681Z,100.00
2022-10-21T18:53:57.232Z,100.00
2022-10-21T18:56:02.363Z,100.00
2022-10-21T18:58:04.477Z,100.00
2022-10-21T19:00:07.470Z,100.00
2022-10-21T19:02:17.704Z,100.00
2022-10-21T19:04:20.344Z,100.00
2022-10-21T19:06:28.130Z,100.00
2022-10-21T19:08:30.226Z,100.00
2022-10-21T19:10:32.411Z,100.00
2022-10-21T19:12:37.939Z,100.00
2022-10-21T19:14:40.270Z,100.00
2022-10-21T19:16:42.781Z,100.00
2022-10-21T19:18:44.887Z,100.00
2022-10-21T19:20:47.082Z,100.00
2022-10-21T19:22:50.614Z,100.00
2022-10-21T19:24:53.168Z,100.00
2022-10-21T19:26:56.739Z,100.00
2022-10-21T19:29:15.461Z,100.00
2022-10-21T19:31:21.118Z,100.00
2022-10-21T19:33:23.213Z,100.00
2022-10-21T19:35:31.550Z,100.00
2022-10-21T19:37:35.120Z,100.00
2022-10-21T19:39:37.816Z,100.00
2022-10-21T19:41:40.261Z,100.00
2022-10-21T19:43:49.598Z,100.00
2022-10-21T19:45:56.012Z,100.00
2022-10-21T19:47:58.174Z,100.00
2022-10-21T19:50:03.889Z,100.00
2022-10-21T19:52:06.090Z,100.00
2022-10-21T19:54:09.817Z,100.00
2022-10-21T19:56:13.584Z,100.00
2022-10-21T19:58:15.776Z,100.00
2022-10-21T20:00:18.174Z,100.00
2022-10-21T20:02:20.531Z,100.00
2022-10-21T20:04:24.870Z,100.00
2022-10-21T20:06:35.031Z,100.00
2022-10-21T20:08:38.683Z,100.00
2022-10-21T20:10:40.872Z,100.00
2022-10-21T20:12:43.154Z,100.00
2022-10-21T20:14:45.340Z,100.00
2022-10-21T20:16:49.253Z,100.00
2022-10-21T20:18:51.519Z,100.00
2022-10-21T20:20:53.898Z,100.00
2022-10-21T20:22:56.264Z,100.00
2022-10-21T20:24:58.304Z,100.00
2022-10-21T20:27:02.233Z,100.00
2022-10-21T20:29:04.828Z,100.00
2022-10-21T20:31:08.358Z,100.00
2022-10-21T20:33:12.630Z,100.00
2022-10-21T20:35:14.893Z,100.00
2022-10-21T20:37:17.052Z,100.00
2022-10-21T20:39:19.223Z,100.00
2022-10-21T20:41:28.489Z,100.00
2022-10-21T20:43:30.646Z,100.00
2022-10-21T20:45:34.237Z,100.00
2022-10-21T20:47:36.363Z,100.00
2022-10-21T20:49:39.755Z,100.00
2022-10-21T20:51:42.574Z,100.00
2022-10-21T20:53:49.938Z,100.00
2022-10-21T20:56:04.108Z,100.00
2022-10-21T20:58:06.305Z,100.00
2022-10-21T21:00:16.192Z,100.00
2022-10-21T21:02:18.933Z,100.00
2022-10-21T21:04:25.468Z,100.00
2022-10-21T21:06:31.968Z,100.00
2022-10-21T21:08:36.102Z,100.00
2022-10-21T21:10:43.692Z,100.00
2022-10-21T21:12:49.728Z,100.00
2022-10-21T21:14:55.230Z,100.00
2022-10-21T21:16:57.510Z,100.00
2022-10-21T21:19:05.228Z,100.00
2022-10-21T21:21:10.349Z,100.00
2022-10-21T21:23:12.660Z,100.00
2022-10-21T21:25:18.370Z,100.00
2022-10-21T21:27:20.751Z,100.00
2022-10-21T21:29:23.271Z,100.00
2022-10-21T21:31:26.398Z,100.00
2022-10-21T21:33:28.636Z,100.00
2022-10-21T21:35:31.008Z,100.00
2022-10-21T21:37:36.276Z,100.00
2022-10-21T21:39:38.651Z,100.00
2022-10-21T21:41:40.770Z,100.00
2022-10-21T21:43:45.629Z,100.00
2022-10-21T21:45:48.467Z,100.00
2022-10-21T21:47:50.895Z,100.00
2022-10-21T21:49:52.957Z,100.00
2022-10-21T21:51:55.367Z,100.00
2022-10-21T21:53:58.721Z,100.00
2022-10-21T21:56:05.852Z,100.00
2022-10-21T21:58:08.837Z,100.00
2022-10-21T22:00:13.008Z,100.00
2022-10-21T22:02:15.557Z,100.00
2022-10-21T22:04:17.631Z,100.00
2022-10-21T22:06:22.689Z,100.00
2022-10-21T22:08:25.100Z,100.00
2022-10-21T22:10:28.137Z,100.00
2022-10-21T22:12:30.397Z,100.00
2022-10-21T22:14:32.829Z,100.00
2022-10-21T22:16:35.300Z,100.00
2022-10-21T22:18:37.887Z,100.00
2022-10-21T22:20:40.734Z,100.00
2022-10-21T22:22:43.955Z,100.00
2022-10-21T22:24:46.515Z,100.00
2022-10-21T22:26:49.279Z,100.00
2022-10-21T22:28:52.787Z,100.00
2022-10-21T22:31:00.776Z,100.00
2022-10-21T22:33:04.735Z,100.00
2022-10-21T22:35:08.740Z,100.00
2022-10-21T22:37:11.725Z,100.00
2022-10-21T22:39:14.151Z,100.00
2022-10-21T22:41:17.224Z,100.00
2022-10-21T22:43:19.602Z,100.00
2022-10-21T22:45:21.866Z,100.00
2022-10-21T22:47:24.742Z,100.00
2022-10-21T22:49:27.221Z,100.00
2022-10-21T22:51:29.314Z,100.00
2022-10-21T22:53:31.681Z,100.00
2022-10-21T22:55:34.150Z,100.00
2022-10-21T22:57:36.536Z,100.00
2022-10-21T22:59:39.189Z,100.00
2022-10-21T23:01:41.337Z,100.00
2022-10-21T23:03:43.740Z,100.00
2022-10-21T23:05:48.841Z,100.00
2022-10-21T23:07:51.319Z,100.00
2022-10-21T23:09:53.615Z,100.00
2022-10-21T23:11:56.167Z,100.00
2022-10-21T23:14:03.155Z,100.00
2022-10-21T23:16:11.073Z,100.00
2022-10-21T23:18:14.240Z,100.00
2022-10-21T23:20:16.726Z,100.00
2022-10-21T23:22:19.632Z,100.00
2022-10-21T23:24:22.244Z,100.00
2022-10-21T23:26:24.838Z,100.00
2022-10-21T23:28:27.473Z,100.00
2022-10-21T23:30:29.893Z,100.00
2022-10-21T23:32:32.464Z,100.00
2022-10-21T23:34:34.732Z,100.00
2022-10-21T23:36:37.240Z,100.00
2022-10-21T23:38:39.466Z,100.00
2022-10-21T23:40:41.987Z,100.00
2022-10-21T23:42:44.265Z,100.00
2022-10-21T23:44:46.483Z,100.00
2022-10-21T23:46:49.674Z,100.00
2022-10-21T23:48:52.020Z,100.00
2022-10-21T23:50:54.775Z,100.00
2022-10-21T23:52:57.684Z,100.00
2022-10-21T23:55:00.350Z,100.00
2022-10-21T23:57:02.587Z,100.00
2022-10-21T23:59:07.058Z,100.00
